createdAt,value
2023-05-22T00:02:28.647Z,1.45
2023-05-22T00:05:00.086Z,1.27
2023-05-22T00:07:30.353Z,1.92
2023-05-22T00:10:00.536Z,1.45
2023-05-22T00:12:30.803Z,1.20
2023-05-22T00:15:01.146Z,1.60
2023-05-22T00:17:31.404Z,1.30
2023-05-22T00:20:08.269Z,1.42
2023-05-22T00:22:39.485Z,1.20
2023-05-22T00:25:10.596Z,1.33
2023-05-22T00:27:40.860Z,1.40
2023-05-22T00:30:11.745Z,1.23
2023-05-22T00:32:41.930Z,1.70
2023-05-22T00:35:12.256Z,1.70
2023-05-22T00:37:42.464Z,1.58
2023-05-22T00:40:13.888Z,1.52
2023-05-22T00:42:44.953Z,1.40
2023-05-22T00:45:15.858Z,1.58
2023-05-22T00:47:46.590Z,1.65
2023-05-22T00:50:18.147Z,1.63
2023-05-22T00:52:48.619Z,1.67
2023-05-22T00:55:18.871Z,1.48
2023-05-22T00:57:50.918Z,1.60
2023-05-22T01:02:56.426Z,1.40
2023-05-22T01:05:26.881Z,1.50
2023-05-22T01:07:57.391Z,1.40
2023-05-22T01:10:28.501Z,1.42
2023-05-22T01:13:26.257Z,1.33
2023-05-22T01:16:01.884Z,1.50
2023-05-22T01:18:52.717Z,1.70
2023-05-22T01:21:46.384Z,1.40
2023-05-22T01:24:44.317Z,1.35
2023-05-22T01:27:51.249Z,1.30
2023-05-22T01:30:32.192Z,1.50
2023-05-22T01:33:04.710Z,1.58
2023-05-22T01:35:37.686Z,1.70
2023-05-22T01:38:09.228Z,1.50
2023-05-22T01:40:39.993Z,1.35
2023-05-22T01:43:10.877Z,1.40
2023-05-22T01:45:41.166Z,1.70
2023-05-22T01:48:12.311Z,1.75
2023-05-22T01:50:42.779Z,1.48
2023-05-22T01:53:24.892Z,1.35
2023-05-22T01:56:10.235Z,1.42
2023-05-22T01:58:40.623Z,1.30
2023-05-22T02:01:14.491Z,1.20
2023-05-22T02:03:47.393Z,1.45
2023-05-22T02:06:19.638Z,1.30
2023-05-22T02:08:51.213Z,1.60
2023-05-22T02:11:24.312Z,1.40
2023-05-22T02:13:55.944Z,1.50
2023-05-22T02:16:29.024Z,1.58
2023-05-22T02:19:06.787Z,1.50
2023-05-22T02:21:37.125Z,1.70
2023-05-22T02:24:07.382Z,1.60
2023-05-22T02:26:37.984Z,1.42
2023-05-22T02:29:08.406Z,1.42
2023-05-22T02:31:38.768Z,1.45
2023-05-22T02:34:08.955Z,2.00
2023-05-22T02:36:39.986Z,1.42
2023-05-22T02:39:10.206Z,1.70
2023-05-22T02:41:40.296Z,2.10
2023-05-22T02:44:10.624Z,1.80
2023-05-22T02:46:40.941Z,1.60
2023-05-22T02:49:11.107Z,1.60
2023-05-22T02:51:41.345Z,1.50
2023-05-22T02:54:11.861Z,1.75
2023-05-22T02:56:43.394Z,1.70
2023-05-22T02:59:13.542Z,1.50
2023-05-22T03:01:44.686Z,1.50
2023-05-22T03:04:15.934Z,1.67
2023-05-22T03:06:46.951Z,1.48
2023-05-22T03:09:17.084Z,1.65
2023-05-22T03:11:47.423Z,2.53
2023-05-22T03:14:17.636Z,2.95
2023-05-22T03:16:47.890Z,3.47
2023-05-22T03:19:18.204Z,3.17
2023-05-22T03:21:50.261Z,3.67
2023-05-22T03:24:21.267Z,3.17
2023-05-22T03:26:51.441Z,2.58
2023-05-22T03:29:21.980Z,2.50
2023-05-22T03:31:53.287Z,2.53
2023-05-22T03:34:23.386Z,2.45
2023-05-22T03:36:53.618Z,2.17
2023-05-22T03:39:23.727Z,2.30
2023-05-22T03:41:54.003Z,2.17
2023-05-22T03:44:24.952Z,1.95
2023-05-22T03:46:55.175Z,2.00
2023-05-22T03:49:25.389Z,1.98
2023-05-22T03:51:55.555Z,1.60
2023-05-22T03:54:25.938Z,1.60
2023-05-22T03:56:56.238Z,1.70
2023-05-22T03:59:26.470Z,1.65
2023-05-22T04:01:58.270Z,1.52
2023-05-22T04:04:29.099Z,1.30
2023-05-22T04:06:59.536Z,1.35
2023-05-22T04:09:31.931Z,1.50
2023-05-22T04:12:02.831Z,1.52
2023-05-22T04:14:33.190Z,1.50
2023-05-22T04:17:03.446Z,1.40
2023-05-22T04:19:33.801Z,1.80
2023-05-22T04:22:04.282Z,1.40
2023-05-22T04:24:34.436Z,1.42
2023-05-22T04:27:04.888Z,1.42
2023-05-22T04:29:36.622Z,1.42
2023-05-22T04:32:10.776Z,1.42
2023-05-22T04:34:42.003Z,1.60
2023-05-22T04:37:15.438Z,1.40
2023-05-22T04:39:46.426Z,1.55
2023-05-22T04:42:17.608Z,1.45
2023-05-22T04:44:48.522Z,1.98
2023-05-22T04:47:19.570Z,1.65
2023-05-22T04:49:49.812Z,1.90
2023-05-22T04:52:19.982Z,1.33
2023-05-22T04:54:52.356Z,1.98
2023-05-22T04:57:25.769Z,1.40
2023-05-22T04:59:57.898Z,1.52
2023-05-22T05:02:28.557Z,1.70
2023-05-22T05:04:58.760Z,1.50
2023-05-22T05:07:29.629Z,1.40
2023-05-22T05:09:59.876Z,1.80
2023-05-22T05:12:30.129Z,1.75
2023-05-22T05:15:00.805Z,1.60
2023-05-22T05:17:31.224Z,1.50
2023-05-22T05:20:18.145Z,1.58
2023-05-22T05:22:48.554Z,1.50
2023-05-22T05:25:18.941Z,1.80
2023-05-22T05:27:49.222Z,1.52
2023-05-22T05:30:20.537Z,1.77
2023-05-22T05:32:50.976Z,1.75
2023-05-22T05:35:21.911Z,1.48
2023-05-22T05:37:52.127Z,1.50
2023-05-22T05:40:22.316Z,1.48
2023-05-22T05:42:52.514Z,1.30
2023-05-22T05:45:22.743Z,1.92
2023-05-22T05:47:53.317Z,1.80
2023-05-22T05:50:23.994Z,1.60
2023-05-22T05:52:54.203Z,1.65
2023-05-22T05:55:24.554Z,1.60
2023-05-22T05:57:54.880Z,1.45
2023-05-22T06:00:25.128Z,1.23
2023-05-22T06:02:56.174Z,1.60
2023-05-22T06:05:27.204Z,1.40
2023-05-22T06:07:59.092Z,1.98
2023-05-22T06:10:29.264Z,1.75
2023-05-22T06:12:59.483Z,1.50
2023-05-22T06:15:30.992Z,1.90
2023-05-22T06:18:02.732Z,2.50
2023-05-22T06:20:33.131Z,1.83
2023-05-22T06:23:03.337Z,2.08
2023-05-22T06:25:34.172Z,2.20
2023-05-22T06:28:04.548Z,2.10
2023-05-22T06:30:40.160Z,2.13
2023-05-22T06:33:10.818Z,1.67
2023-05-22T06:35:41.350Z,2.03
2023-05-22T06:38:11.550Z,2.17
2023-05-22T06:40:41.991Z,1.90
2023-05-22T06:43:12.872Z,2.00
2023-05-22T06:45:44.778Z,2.30
2023-05-22T06:48:15.836Z,2.70
2023-05-22T06:50:47.927Z,2.20
2023-05-22T06:53:18.352Z,2.33
2023-05-22T06:55:48.852Z,2.38
2023-05-22T06:58:21.371Z,2.67
2023-05-22T07:00:52.431Z,2.10
2023-05-22T07:03:24.832Z,2.58
2023-05-22T07:05:57.840Z,2.38
2023-05-22T07:08:30.419Z,1.95
2023-05-22T07:11:02.231Z,2.50
2023-05-22T07:13:32.553Z,2.40
2023-05-22T07:16:03.198Z,1.85
2023-05-22T07:18:33.462Z,2.05
2023-05-22T07:21:03.909Z,2.10
2023-05-22T07:23:34.128Z,1.50
2023-05-22T07:26:04.339Z,2.10
2023-05-22T07:28:34.514Z,2.35
2023-05-22T07:31:04.803Z,1.88
2023-05-22T07:33:35.014Z,1.30
2023-05-22T07:36:05.690Z,1.35
2023-05-22T07:38:35.800Z,1.48
2023-05-22T07:41:06.165Z,1.20
2023-05-22T07:43:36.774Z,1.15
2023-05-22T07:46:07.173Z,1.50
2023-05-22T07:48:37.376Z,1.50
2023-05-22T07:51:08.085Z,1.35
2023-05-22T07:53:38.273Z,1.33
2023-05-22T07:56:08.610Z,1.05
2023-05-22T07:58:40.176Z,1.02
2023-05-22T08:01:10.482Z,1.27
2023-05-22T08:03:41.033Z,1.58
2023-05-22T08:06:11.639Z,1.42
2023-05-22T08:08:42.024Z,1.30
2023-05-22T08:11:12.221Z,1.40
2023-05-22T08:13:42.447Z,1.10
2023-05-22T08:16:13.062Z,1.45
2023-05-22T08:18:43.282Z,1.13
2023-05-22T08:21:13.582Z,1.27
2023-05-22T08:23:43.848Z,1.20
2023-05-22T08:26:15.402Z,1.27
2023-05-22T08:28:45.768Z,1.50
2023-05-22T08:31:16.157Z,1.33
2023-05-22T08:33:46.486Z,1.13
2023-05-22T08:36:17.023Z,1.20
2023-05-22T08:38:47.199Z,1.17
2023-05-22T08:41:17.536Z,1.25
2023-05-22T08:43:54.756Z,1.25
2023-05-22T08:46:29.516Z,1.17
2023-05-22T08:49:01.674Z,1.10
2023-05-22T08:51:34.512Z,1.65
2023-05-22T08:54:08.996Z,1.13
2023-05-22T08:56:52.989Z,1.45
2023-05-22T08:59:26.286Z,1.30
2023-05-22T09:01:58.331Z,1.40
2023-05-22T09:04:29.098Z,1.08
2023-05-22T09:07:05.965Z,1.42
2023-05-22T09:09:47.211Z,1.52
2023-05-22T09:12:17.696Z,1.38
2023-05-22T09:14:47.851Z,1.00
2023-05-22T09:17:18.646Z,1.20
2023-05-22T09:19:48.980Z,1.25
2023-05-22T09:22:19.241Z,1.30
2023-05-22T09:24:49.538Z,1.70
2023-05-22T09:27:23.685Z,1.10
2023-05-22T09:29:57.186Z,1.25
2023-05-22T09:32:30.210Z,1.17
2023-05-22T09:35:07.019Z,1.42
2023-05-22T09:37:37.355Z,1.20
2023-05-22T09:40:08.998Z,1.48
2023-05-22T09:42:39.270Z,1.30
2023-05-22T09:45:09.856Z,1.30
2023-05-22T09:47:40.712Z,1.27
2023-05-22T09:50:11.255Z,1.42
2023-05-22T09:52:44.424Z,1.90
2023-05-22T09:55:16.416Z,1.60
2023-05-22T09:57:49.793Z,1.73
2023-05-22T10:00:20.504Z,1.30
2023-05-22T10:02:59.257Z,1.67
2023-05-22T10:05:33.982Z,1.52
2023-05-22T10:08:32.218Z,1.30
2023-05-22T10:11:03.964Z,1.63
2023-05-22T10:13:36.361Z,1.52
2023-05-22T10:16:07.923Z,1.55
2023-05-22T10:18:39.197Z,1.60
2023-05-22T10:21:11.542Z,1.70
2023-05-22T10:23:42.149Z,1.48
2023-05-22T10:26:13.158Z,1.40
2023-05-22T10:28:51.736Z,1.42
2023-05-22T10:31:33.038Z,1.50
2023-05-22T10:34:10.508Z,1.75
2023-05-22T10:36:50.667Z,1.90
2023-05-22T10:39:32.757Z,2.03
2023-05-22T10:42:04.480Z,1.50
2023-05-22T10:44:34.905Z,1.52
2023-05-22T10:47:13.882Z,1.50
2023-05-22T10:49:45.695Z,1.70
2023-05-22T10:52:18.818Z,1.67
2023-05-22T10:54:53.770Z,1.55
2023-05-22T10:57:24.948Z,1.70
2023-05-22T11:00:15.848Z,1.80
2023-05-22T11:02:54.070Z,1.52
2023-05-22T11:05:28.253Z,1.90
2023-05-22T11:08:26.381Z,1.50
2023-05-22T11:10:59.462Z,1.70
2023-05-22T11:13:32.369Z,1.70
2023-05-22T11:16:05.478Z,1.67
2023-05-22T11:18:35.832Z,1.73
2023-05-22T11:21:10.039Z,1.55
2023-05-22T11:23:40.430Z,1.80
2023-05-22T11:26:22.558Z,1.42
2023-05-22T11:28:53.449Z,1.73
2023-05-22T11:31:24.172Z,1.73
2023-05-22T11:33:54.972Z,1.50
2023-05-22T11:36:25.511Z,1.40
2023-05-22T11:39:01.614Z,1.25
2023-05-22T11:41:34.681Z,1.55
2023-05-22T11:44:08.792Z,1.63
2023-05-22T11:46:39.594Z,1.48
2023-05-22T11:49:13.689Z,1.30
2023-05-22T11:51:44.494Z,1.80
2023-05-22T11:54:18.472Z,1.60
2023-05-22T11:56:48.668Z,1.90
2023-05-22T11:59:22.368Z,1.52
2023-05-22T12:01:52.759Z,1.83
2023-05-22T12:04:23.574Z,1.50
2023-05-22T12:06:55.072Z,1.80
2023-05-22T12:09:27.725Z,1.73
2023-05-22T12:11:58.194Z,1.85
2023-05-22T12:14:30.294Z,1.50
2023-05-22T12:17:06.849Z,2.40
2023-05-22T12:19:43.083Z,1.60
2023-05-22T12:22:14.427Z,1.50
2023-05-22T12:24:48.598Z,1.95
2023-05-22T12:27:18.778Z,1.92
2023-05-22T12:29:49.021Z,1.70
2023-05-22T12:32:22.302Z,1.75
2023-05-22T12:34:52.650Z,1.55
2023-05-22T12:37:26.041Z,1.70
2023-05-22T12:40:01.197Z,1.80
2023-05-22T12:45:01.698Z,1.25
2023-05-22T12:47:32.957Z,1.60
2023-05-22T12:50:03.292Z,1.15
2023-05-22T12:52:33.475Z,1.30
2023-05-22T12:55:04.246Z,1.33
2023-05-22T12:57:34.577Z,1.38
2023-05-22T13:00:06.274Z,1.50
2023-05-22T13:02:36.617Z,1.52
2023-05-22T13:05:07.200Z,1.20
2023-05-22T13:07:38.290Z,1.33
2023-05-22T13:10:09.256Z,1.60
2023-05-22T13:12:39.929Z,1.40
2023-05-22T13:15:12.037Z,1.38
2023-05-22T13:17:42.375Z,1.10
2023-05-22T13:20:13.602Z,1.15
2023-05-22T13:22:43.861Z,1.58
2023-05-22T13:25:14.246Z,1.05
2023-05-22T13:27:45.005Z,1.50
2023-05-22T13:30:15.345Z,1.60
2023-05-22T13:32:45.749Z,1.30
2023-05-22T13:35:16.030Z,1.50
2023-05-22T13:37:46.532Z,1.60
2023-05-22T13:40:18.144Z,1.58
2023-05-22T13:42:48.388Z,1.27
2023-05-22T13:45:18.644Z,1.30
2023-05-22T13:47:49.881Z,1.35
2023-05-22T13:50:20.432Z,1.25
2023-05-22T13:52:50.636Z,1.60
2023-05-22T13:55:21.228Z,1.70
2023-05-22T13:57:51.814Z,1.42
2023-05-22T14:00:22.084Z,1.25
2023-05-22T14:02:52.452Z,1.58
2023-05-22T14:05:24.166Z,1.48
2023-05-22T14:07:56.221Z,1.50
2023-05-22T14:10:26.763Z,1.48
2023-05-22T14:12:56.929Z,1.50
2023-05-22T14:15:27.079Z,1.48
2023-05-22T14:17:57.362Z,1.40
2023-05-22T14:20:27.516Z,1.30
2023-05-22T14:22:58.531Z,1.20
2023-05-22T14:25:28.947Z,1.50
2023-05-22T14:27:59.127Z,1.05
2023-05-22T14:30:29.336Z,1.80
2023-05-22T14:33:00.600Z,1.50
2023-05-22T14:35:31.543Z,1.38
2023-05-22T14:38:02.084Z,1.60
2023-05-22T14:40:32.388Z,1.60
2023-05-22T14:43:02.503Z,1.77
2023-05-22T14:45:32.682Z,1.80
2023-05-22T14:48:02.900Z,1.75
2023-05-22T14:50:33.330Z,1.95
2023-05-22T14:53:04.097Z,1.77
2023-05-22T14:55:34.333Z,2.25
2023-05-22T14:58:04.539Z,2.60
2023-05-22T15:00:34.698Z,1.80
2023-05-22T15:03:05.118Z,2.17
2023-05-22T15:05:35.390Z,1.73
2023-05-22T15:08:05.621Z,1.75
2023-05-22T15:10:36.692Z,1.75
2023-05-22T15:13:07.002Z,1.50
2023-05-22T15:15:37.292Z,1.80
2023-05-22T15:18:09.149Z,1.90
2023-05-22T15:20:39.948Z,1.65
2023-05-22T15:23:10.078Z,1.63
2023-05-22T15:25:40.640Z,1.67
2023-05-22T15:28:10.987Z,1.70
2023-05-22T15:30:43.800Z,1.75
2023-05-22T15:33:14.991Z,1.30
2023-05-22T15:35:46.821Z,1.50
2023-05-22T15:38:17.053Z,1.73
2023-05-22T15:40:47.313Z,1.52
2023-05-22T15:43:17.582Z,1.60
2023-05-22T15:45:51.111Z,1.40
2023-05-22T15:48:21.401Z,1.48
2023-05-22T15:50:51.535Z,1.50
2023-05-22T15:53:22.918Z,1.25
2023-05-22T15:55:53.566Z,1.60
2023-05-22T15:58:23.719Z,1.63
2023-05-22T16:00:54.028Z,2.05
2023-05-22T16:03:24.377Z,2.10
2023-05-22T16:05:54.656Z,1.60
2023-05-22T16:08:24.819Z,1.30
2023-05-22T16:10:56.920Z,1.30
2023-05-22T16:13:29.905Z,1.50
2023-05-22T16:16:00.244Z,1.40
2023-05-22T16:18:30.612Z,1.85
2023-05-22T16:21:00.876Z,2.13
2023-05-22T16:23:31.154Z,2.30
2023-05-22T16:26:01.373Z,2.55
2023-05-22T16:28:31.819Z,2.00
2023-05-22T16:31:02.101Z,2.28
2023-05-22T16:33:36.466Z,1.80
2023-05-22T16:36:07.204Z,1.63
2023-05-22T16:38:37.681Z,1.75
2023-05-22T16:41:09.021Z,1.60
2023-05-22T16:43:41.444Z,1.60
2023-05-22T16:46:12.005Z,1.65
2023-05-22T16:48:42.319Z,1.48
2023-05-22T16:51:12.470Z,1.30
2023-05-22T16:53:42.878Z,1.70
2023-05-22T16:56:14.171Z,1.67
2023-05-22T16:58:44.545Z,1.58
2023-05-22T17:01:15.089Z,1.50
2023-05-22T17:03:46.516Z,1.63
2023-05-22T17:06:18.341Z,1.40
2023-05-22T17:08:50.947Z,1.38
2023-05-22T17:11:21.238Z,1.42
2023-05-22T17:13:51.452Z,1.00
2023-05-22T17:16:21.715Z,1.20
2023-05-22T17:18:54.749Z,1.17
2023-05-22T17:21:25.294Z,1.42
2023-05-22T17:23:55.532Z,1.27
2023-05-22T17:26:25.768Z,1.33
2023-05-22T17:28:56.024Z,1.50
2023-05-22T17:31:26.346Z,1.80
2023-05-22T17:33:56.449Z,1.50
2023-05-22T17:36:26.622Z,1.60
2023-05-22T17:38:56.871Z,1.67
2023-05-22T17:41:27.251Z,2.00
2023-05-22T17:44:00.911Z,1.90
2023-05-22T17:46:31.176Z,1.80
2023-05-22T17:49:01.693Z,1.70
2023-05-22T17:51:32.438Z,1.90
2023-05-22T17:54:02.600Z,1.60
2023-05-22T17:56:34.190Z,2.33
2023-05-22T17:59:06.645Z,1.92
2023-05-22T18:01:36.918Z,1.92
2023-05-22T18:04:07.261Z,1.90
2023-05-22T18:06:37.533Z,1.65
2023-05-22T18:09:08.362Z,1.75
2023-05-22T18:11:38.506Z,1.55
2023-05-22T18:14:08.753Z,1.50
2023-05-22T18:16:39.092Z,1.70
2023-05-22T18:19:09.391Z,2.30
2023-05-22T18:21:39.508Z,1.90
2023-05-22T18:24:09.664Z,2.17
2023-05-22T18:26:39.909Z,2.85
2023-05-22T18:29:10.479Z,2.92
2023-05-22T18:31:40.786Z,2.33
2023-05-22T18:34:11.030Z,2.40
2023-05-22T18:36:44.279Z,2.30
2023-05-22T18:39:15.029Z,2.10
2023-05-22T18:41:47.963Z,2.13
2023-05-22T18:44:18.129Z,2.15
2023-05-22T18:46:48.391Z,2.10
2023-05-22T18:49:18.580Z,2.00
2023-05-22T18:51:48.752Z,1.40
2023-05-22T18:54:18.918Z,2.13
2023-05-22T18:56:49.157Z,1.70
2023-05-22T18:59:19.410Z,2.28
2023-05-22T19:01:49.556Z,2.17
2023-05-22T19:04:20.012Z,1.80
2023-05-22T19:06:53.838Z,2.00
2023-05-22T19:09:24.847Z,5.53
2023-05-22T19:11:55.070Z,6.03
2023-05-22T19:14:25.363Z,5.43
2023-05-22T19:16:55.544Z,4.20
2023-05-22T19:19:26.332Z,3.53
2023-05-22T19:21:56.606Z,3.67
2023-05-22T19:24:28.407Z,3.13
2023-05-22T19:26:58.531Z,2.88
2023-05-22T19:29:28.732Z,2.70
2023-05-22T19:31:58.884Z,2.08
2023-05-22T19:34:29.174Z,2.45
2023-05-22T19:36:59.397Z,2.25
2023-05-22T19:39:29.540Z,2.08
2023-05-22T19:41:59.862Z,2.42
2023-05-22T19:44:30.073Z,2.40
2023-05-22T19:47:00.288Z,2.75
2023-05-22T19:49:31.810Z,3.30
2023-05-22T19:52:01.984Z,3.40
2023-05-22T19:54:32.313Z,3.25
2023-05-22T19:57:03.348Z,3.90
2023-05-22T19:59:35.838Z,4.97
2023-05-22T20:02:07.800Z,4.80
2023-05-22T20:04:39.836Z,5.43
2023-05-22T20:07:10.658Z,4.38
2023-05-22T20:09:40.905Z,3.72
2023-05-22T20:12:11.105Z,3.47
2023-05-22T20:14:42.200Z,3.78
2023-05-22T20:17:12.546Z,4.43
2023-05-22T20:19:45.187Z,4.75
2023-05-22T20:22:15.495Z,5.22
2023-05-22T20:24:47.420Z,5.05
2023-05-22T20:27:17.591Z,3.97
2023-05-22T20:29:50.081Z,4.15
2023-05-22T20:32:20.358Z,3.72
2023-05-22T20:34:52.521Z,3.15
2023-05-22T20:37:23.287Z,3.08
2023-05-22T20:39:53.537Z,3.30
2023-05-22T20:42:23.873Z,2.83
2023-05-22T20:44:54.058Z,3.05
2023-05-22T20:47:24.177Z,3.38
2023-05-22T20:49:54.476Z,2.92
2023-05-22T20:52:24.908Z,3.20
2023-05-22T20:54:55.038Z,3.10
2023-05-22T20:57:25.843Z,2.95
2023-05-22T20:59:56.219Z,2.90
2023-05-22T21:02:26.566Z,2.83
2023-05-22T21:04:56.813Z,2.88
2023-05-22T21:07:27.023Z,2.38
2023-05-22T21:09:57.207Z,2.63
2023-05-22T21:12:27.388Z,2.70
2023-05-22T21:14:57.612Z,2.63
2023-05-22T21:17:29.139Z,2.33
2023-05-22T21:19:59.309Z,2.60
2023-05-22T21:22:29.490Z,2.90
2023-05-22T21:24:59.674Z,2.45
2023-05-22T21:27:29.935Z,2.63
2023-05-22T21:30:00.136Z,2.30
2023-05-22T21:32:30.677Z,2.20
2023-05-22T21:35:00.769Z,2.50
2023-05-22T21:37:30.946Z,2.22
2023-05-22T21:40:02.514Z,2.45
2023-05-22T21:42:44.980Z,2.10
2023-05-22T21:45:16.138Z,2.28
2023-05-22T21:47:46.470Z,2.10
2023-05-22T21:50:16.853Z,2.35
2023-05-22T21:52:47.112Z,2.17
2023-05-22T21:55:17.239Z,1.90
2023-05-22T21:57:47.407Z,1.90
2023-05-22T22:00:19.119Z,1.73
2023-05-22T22:02:49.486Z,1.83
2023-05-22T22:05:19.854Z,1.90
2023-05-22T22:07:52.034Z,1.83
2023-05-22T22:10:22.509Z,1.85
2023-05-22T22:12:52.862Z,2.05
2023-05-22T22:15:23.442Z,1.98
2023-05-22T22:18:04.015Z,2.15
2023-05-22T22:20:44.137Z,2.00
2023-05-22T22:23:15.466Z,1.95
2023-05-22T22:25:45.741Z,2.00
2023-05-22T22:28:17.570Z,2.30
2023-05-22T22:30:48.031Z,2.00
2023-05-22T22:33:18.280Z,1.75
2023-05-22T22:35:49.617Z,1.88
2023-05-22T22:38:19.814Z,1.90
2023-05-22T22:40:50.211Z,2.08
2023-05-22T22:43:20.593Z,1.92
2023-05-22T22:45:50.986Z,1.85
2023-05-22T22:48:22.554Z,1.85
2023-05-22T22:50:52.915Z,2.15
2023-05-22T22:53:23.079Z,2.03
2023-05-22T22:55:57.102Z,1.90
2023-05-22T22:58:27.429Z,2.25
2023-05-22T23:00:57.735Z,1.83
2023-05-22T23:03:27.972Z,2.10
2023-05-22T23:05:58.274Z,2.13
2023-05-22T23:08:28.460Z,2.28
2023-05-22T23:10:58.661Z,1.98
2023-05-22T23:13:28.896Z,1.90
2023-05-22T23:15:59.290Z,1.73
2023-05-22T23:18:29.597Z,1.75
2023-05-22T23:20:59.834Z,1.88
2023-05-22T23:23:29.984Z,2.20
2023-05-22T23:26:00.229Z,1.80
2023-05-22T23:28:30.382Z,1.88
2023-05-22T23:31:00.545Z,1.88
2023-05-22T23:33:30.767Z,1.95
2023-05-22T23:36:01.391Z,1.88
2023-05-22T23:38:31.558Z,1.90
2023-05-22T23:41:02.074Z,2.03
2023-05-22T23:43:32.309Z,1.92
2023-05-22T23:46:02.404Z,2.03
2023-05-22T23:48:32.568Z,2.15
2023-05-22T23:51:03.514Z,2.22
2023-05-22T23:53:33.713Z,2.13
2023-05-22T23:56:04.772Z,2.28
2023-05-22T23:58:38.657Z,2.10
